ROMMA est une association bénévole à but non lucratif. Votre soutien est indispensable : ADHERER à ROMMA ou FAIRE un DON

La Ferrière - (38, Isère)

Belledonne - Vallée du Haut Bréda (1000 m)   Longitude: 06° 04' 55" E   Latitude: 45° 18' 16" N Station romma n°33
 

Détail journalier du     <<     >>

Température Precipitation Humidité Pression Vent Dir Rafale Dir. rafale
Heure (°C) (mm) (%) (hPa) (km/h) (km/h)
01:00 3.009310201NO4NO
02:00 2.809310212NO5NO
03:00 2.509410211NO5NO
04:00 2.209510201NO1NO
05:00 1.909510201NO7NO
06:00 1.709610191NO3NO
07:00 1.409610191NO3NO
08:00 1.109610191NO5NO
09:00 1.809710202NO7NO
10:00 2.509710203NO5NO
11:00 9.209610202NO7NO
12:00 14.508410206NO8NO
13:00 17.407410198NO9NO
14:00 16.906610197NO11NO
15:00 17.906310185NO11NO
16:00 17.9061101811NO14NO
17:00 16.706510185NO9NO
18:00 12.007310184NO8NO
19:00 9.107910185NO8NO
20:00 8.008210191S2S
21:00 6.908510192S6S
22:00 6.708710191S2S
23:00 6.308810192S7S
minuit 6.208910192S6S

Graphique du 11-10-2019

 

Serveur OMMA